Time;durP1;ratioP1;P1;durP2;ratioP2;P2;SDS_P1;SDS_P2;PMS_P1;PMS_P2;Temp;Humidity;BMP_temperature;BMP_pressure;BME280_temperature;BME280_humidity;BME280_pressure;Samples;Min_cycle;Max_cycle;Signal;HPM_P1;HPM_P2
2022/05/19 00:02:06;;;;;;;2.80;0.50;;;;;;;14.87;100.00;99752.31;7394358;19;20010;-56
2022/05/19 00:04:33;;;;;;;0.95;0.35;;;;;;;14.84;100.00;99756.13;7393827;19;20106;-56
2022/05/19 00:06:59;;;;;;;0.20;0.20;;;;;;;14.76;100.00;99754.31;7393643;19;20010;-56
2022/05/19 00:09:25;;;;;;;0.10;0.10;;;;;;;14.66;100.00;99762.19;7393254;19;20080;-56
2022/05/19 00:11:54;;;;;;;0.38;0.20;;;;;;;14.59;100.00;99759.91;7395955;19;20015;-56
2022/05/19 00:14:20;;;;;;;0.38;0.38;;;;;;;14.54;100.00;99771.84;7392897;19;20021;-56
2022/05/19 00:16:47;;;;;;;0.63;0.43;;;;;;;14.48;100.00;99762.66;7393680;19;20098;-56
2022/05/19 00:19:15;;;;;;;0.20;0.10;;;;;;;14.44;100.00;99767.75;7394024;19;20007;-56
2022/05/19 00:21:42;;;;;;;0.20;0.20;;;;;;;14.45;100.00;99766.47;7394367;19;20017;-56
2022/05/19 00:24:09;;;;;;;0.20;0.20;;;;;;;14.46;100.00;99770.03;7393622;19;20028;-56
2022/05/19 00:26:36;;;;;;;1.10;0.40;;;;;;;14.38;100.00;99755.72;7392451;19;20031;-56
2022/05/19 00:29:02;;;;;;;0.70;0.38;;;;;;;14.33;100.00;99756.50;7389996;19;20365;-56
2022/05/19 00:31:31;;;;;;;0.15;0.15;;;;;;;14.31;100.00;99773.03;7391932;19;20011;-56
2022/05/19 00:34:00;;;;;;;3.47;0.28;;;;;;;14.21;100.00;99766.06;7392413;19;20014;-56
2022/05/19 00:36:28;;;;;;;0.30;0.30;;;;;;;14.19;100.00;99765.81;7394054;19;20550;-56
2022/05/19 00:38:54;;;;;;;0.88;0.47;;;;;;;14.24;100.00;99759.47;7393340;19;20528;-56
2022/05/19 00:41:21;;;;;;;0.50;0.50;;;;;;;14.29;100.00;99753.91;7395970;19;20011;-56
2022/05/19 00:44:05;;;;;;;0.80;0.40;;;;;;;14.41;100.00;99746.31;7392692;19;20013;-56
2022/05/19 00:46:45;;;;;;;0.45;0.20;;;;;;;14.45;100.00;99746.84;7392887;19;20500;-56
2022/05/19 00:49:19;;;;;;;1.48;0.38;;;;;;;14.47;100.00;99755.50;7391683;19;20346;-56
2022/05/19 00:51:48;;;;;;;0.10;0.10;;;;;;;14.55;100.00;99761.41;7393998;19;20047;-56
2022/05/19 00:54:24;;;;;;;4.88;1.30;;;;;;;14.58;100.00;99755.53;7393046;19;20014;-56
2022/05/19 00:57:11;;;;;;;0.30;0.30;;;;;;;14.67;100.00;99758.13;7392164;19;20037;-56
2022/05/19 00:59:54;;;;;;;0.50;0.40;;;;;;;14.71;100.00;99758.63;7389619;19;20031;-58
2022/05/19 01:02:25;;;;;;;0.60;0.52;;;;;;;14.75;100.00;99752.81;7393080;19;20766;-57
2022/05/19 01:05:01;;;;;;;1.05;0.40;;;;;;;14.69;100.00;99749.97;7391113;19;20533;-57
2022/05/19 01:07:34;;;;;;;1.05;0.63;;;;;;;14.72;100.00;99754.56;7391296;19;20403;-57
2022/05/19 01:10:03;;;;;;;1.15;0.50;;;;;;;14.65;100.00;99749.47;7392141;19;20014;-57
2022/05/19 01:12:29;;;;;;;0.47;0.30;;;;;;;14.56;100.00;99746.09;7394807;19;20367;-57
2022/05/19 01:14:55;;;;;;;0.47;0.17;;;;;;;14.49;100.00;99752.97;7391250;19;20054;-57
2022/05/19 01:17:23;;;;;;;3.63;1.00;;;;;;;14.32;100.00;99754.94;7391493;19;20018;-57
2022/05/19 01:19:55;;;;;;;1.00;0.73;;;;;;;14.29;100.00;99748.31;7391648;19;20455;-57
2022/05/19 01:22:41;;;;;;;0.50;0.20;;;;;;;14.11;100.00;99759.94;7392486;19;20494;-57
2022/05/19 01:25:24;;;;;;;0.30;0.30;;;;;;;13.93;100.00;99767.97;7391842;19;20036;-57
2022/05/19 01:27:50;;;;;;;1.27;0.50;;;;;;;13.77;100.00;99765.84;7391329;19;20018;-57
2022/05/19 01:30:16;;;;;;;0.73;0.73;;;;;;;13.65;100.00;99771.38;7391231;19;20011;-57
2022/05/19 01:32:42;;;;;;;0.57;0.57;;;;;;;13.57;100.00;99769.53;7394583;19;20839;-57
2022/05/19 01:35:09;;;;;;;2.25;0.63;;;;;;;13.45;100.00;99774.28;7391083;19;20014;-57
2022/05/19 01:37:36;;;;;;;0.98;0.30;;;;;;;13.37;100.00;99778.78;7390503;19;20062;-58
2022/05/19 01:40:25;;;;;;;0.68;0.50;;;;;;;13.28;100.00;99772.59;7390509;19;20070;-57
2022/05/19 01:43:16;;;;;;;1.35;0.55;;;;;;;13.12;100.00;99779.59;7392814;19;20010;-57
2022/05/19 01:46:14;;;;;;;2.47;0.77;;;;;;;13.07;100.00;99794.28;7390985;19;20014;-57
2022/05/19 01:48:43;;;;;;;2.38;0.63;;;;;;;13.01;100.00;99796.25;7389502;19;20015;-57
2022/05/19 01:51:21;;;;;;;1.75;0.77;;;;;;;12.93;100.00;99789.53;7390045;19;20007;-57
2022/05/19 01:54:10;;;;;;;1.65;0.40;;;;;;;12.92;100.00;99790.81;7388911;19;20438;-57
2022/05/19 01:56:48;;;;;;;0.55;0.52;;;;;;;12.80;100.00;99787.13;7390245;19;20011;-57
2022/05/19 01:59:21;;;;;;;0.32;0.32;;;;;;;12.74;100.00;99791.13;7390872;19;20011;-57
2022/05/19 02:02:24;;;;;;;0.52;0.52;;;;;;;12.70;100.00;99793.38;7389050;19;20014;-57
2022/05/19 02:05:21;;;;;;;0.85;0.40;;;;;;;12.61;100.00;99807.50;7388775;19;20027;-57
2022/05/19 02:07:54;;;;;;;0.30;0.22;;;;;;;12.59;100.00;99804.41;7390639;19;20026;-57
2022/05/19 02:10:26;;;;;;;0.60;0.60;;;;;;;12.52;100.00;99802.81;7390564;19;20042;-57
2022/05/19 02:12:54;;;;;;;1.13;0.63;;;;;;;12.55;100.00;99809.47;7392623;19;20427;-56
2022/05/19 02:15:24;;;;;;;0.50;0.32;;;;;;;12.50;100.00;99816.50;7389122;19;20010;-57
2022/05/19 02:17:52;;;;;;;2.17;0.75;;;;;;;12.32;100.00;99813.25;7390128;19;20010;-57
2022/05/19 02:20:22;;;;;;;0.30;0.30;;;;;;;12.36;100.00;99808.22;7388834;19;20040;-57
2022/05/19 02:22:48;;;;;;;0.68;0.60;;;;;;;12.37;100.00;99809.72;7390402;19;20014;-57
2022/05/19 02:25:20;;;;;;;1.60;1.10;;;;;;;12.32;100.00;99802.84;7392074;19;20034;-57
2022/05/19 02:27:52;;;;;;;0.50;0.40;;;;;;;12.31;100.00;99806.09;7389502;19;20491;-57
2022/05/19 02:30:24;;;;;;;0.30;0.30;;;;;;;12.31;100.00;99806.88;7388394;19;20010;-57
2022/05/19 02:32:50;;;;;;;0.57;0.10;;;;;;;12.32;100.00;99814.00;7393396;19;20409;-57
2022/05/19 02:35:17;;;;;;;0.63;0.40;;;;;;;12.31;100.00;99812.47;7388374;19;20006;-56
2022/05/19 02:37:44;;;;;;;1.67;0.55;;;;;;;12.32;100.00;99813.25;7388515;19;20085;-56
2022/05/19 02:40:14;;;;;;;1.67;1.25;;;;;;;12.27;100.00;99809.13;7390690;19;20041;-56
2022/05/19 02:42:40;;;;;;;1.27;0.47;;;;;;;12.30;100.00;99793.41;7391138;19;20015;-57
2022/05/19 02:45:08;;;;;;;0.68;0.40;;;;;;;12.22;100.00;99797.84;7389131;19;20105;-57
2022/05/19 02:47:34;;;;;;;0.82;0.40;;;;;;;12.06;100.00;99794.38;7389872;19;20023;-57
2022/05/19 02:50:01;;;;;;;0.60;0.60;;;;;;;12.04;100.00;99799.66;7389192;19;20011;-57
2022/05/19 02:52:27;;;;;;;0.50;0.32;;;;;;;11.87;100.00;99800.69;7392495;19;20011;-57
2022/05/19 02:54:53;;;;;;;0.43;0.43;;;;;;;11.81;100.00;99805.41;7390777;19;20015;-57
2022/05/19 02:57:19;;;;;;;6.32;1.27;;;;;;;11.77;100.00;99802.84;7387904;19;20015;-56
2022/05/19 02:59:45;;;;;;;0.45;0.45;;;;;;;11.80;100.00;99806.69;7387630;19;20014;-56
2022/05/19 03:02:11;;;;;;;1.10;0.52;;;;;;;11.80;100.00;99801.84;7389287;19;20508;-57
2022/05/19 03:04:38;;;;;;;0.98;0.70;;;;;;;11.77;100.00;99807.66;7389064;19;20018;-56
2022/05/19 03:07:04;;;;;;;0.30;0.30;;;;;;;11.77;100.00;99814.00;7387320;19;20028;-56
2022/05/19 03:09:30;;;;;;;0.30;0.30;;;;;;;11.74;100.00;99809.38;7388433;19;20013;-56
2022/05/19 03:11:57;;;;;;;0.40;0.40;;;;;;;11.59;100.00;99808.63;7390459;19;20010;-56
2022/05/19 03:14:23;;;;;;;2.05;0.52;;;;;;;11.38;100.00;99813.38;7388255;19;20014;-56
2022/05/19 03:16:49;;;;;;;2.08;1.00;;;;;;;11.35;100.00;99816.31;7387781;19;20011;-56
2022/05/19 03:19:16;;;;;;;0.98;0.60;;;;;;;11.30;100.00;99819.81;7388451;19;20021;-56
2022/05/19 03:21:43;;;;;;;1.90;0.30;;;;;;;11.18;100.00;99816.06;7387377;19;20006;-56
2022/05/19 03:24:09;;;;;;;1.05;0.28;;;;;;;11.04;100.00;99818.84;7393284;19;20029;-56
2022/05/19 03:26:36;;;;;;;2.15;0.60;;;;;;;11.13;100.00;99815.97;7394984;19;20031;-56
2022/05/19 03:29:03;;;;;;;0.47;0.43;;;;;;;11.24;100.00;99816.16;7395570;19;20014;-56
2022/05/19 03:31:29;;;;;;;0.60;0.55;;;;;;;11.12;100.00;99811.63;7397030;19;20017;-56
2022/05/19 03:33:55;;;;;;;0.70;0.68;;;;;;;11.12;100.00;99825.56;7395511;19;20010;-56
2022/05/19 03:36:21;;;;;;;2.17;0.55;;;;;;;11.08;100.00;99819.41;7393775;19;20573;-56
2022/05/19 03:38:48;;;;;;;1.33;1.23;;;;;;;11.00;100.00;99812.69;7395052;19;20221;-56
2022/05/19 03:41:14;;;;;;;0.63;0.45;;;;;;;10.98;100.00;99826.34;7396883;19;20017;-56
2022/05/19 03:43:40;;;;;;;0.40;0.40;;;;;;;10.95;100.00;99832.84;7393845;19;20015;-56
2022/05/19 03:46:07;;;;;;;0.43;0.43;;;;;;;10.98;100.00;99831.91;7394882;19;20011;-56
2022/05/19 03:48:38;;;;;;;0.70;0.70;;;;;;;10.85;100.00;99829.38;7394701;19;20017;-56
2022/05/19 03:51:09;;;;;;;1.65;1.00;;;;;;;10.95;100.00;99830.84;7394479;19;20347;-56
2022/05/19 03:53:35;;;;;;;2.13;1.35;;;;;;;11.05;100.00;99825.94;7393872;19;20367;-55
2022/05/19 03:56:02;;;;;;;0.43;0.43;;;;;;;11.08;100.00;99839.69;7395172;19;20019;-55
2022/05/19 03:58:28;;;;;;;2.35;0.65;;;;;;;11.00;100.00;99838.53;7394844;19;20756;-55
2022/05/19 04:00:55;;;;;;;0.63;0.40;;;;;;;10.90;100.00;99842.66;7393891;19;20057;-55
2022/05/19 04:03:21;;;;;;;0.30;0.30;;;;;;;10.89;100.00;99829.97;7393448;19;20029;-55
2022/05/19 04:05:47;;;;;;;0.85;0.57;;;;;;;10.88;100.00;99822.09;7393711;19;20018;-55
2022/05/19 04:08:13;;;;;;;0.20;0.20;;;;;;;10.88;100.00;99831.22;7393590;19;20022;-55
2022/05/19 04:10:44;;;;;;;1.27;0.65;;;;;;;10.82;100.00;99832.34;7392846;19;20071;-55
2022/05/19 04:13:11;;;;;;;2.80;0.63;;;;;;;10.79;100.00;99836.09;7396960;19;20007;-55
2022/05/19 04:15:38;;;;;;;2.30;0.45;;;;;;;10.65;100.00;99832.03;7394146;19;20019;-55
2022/05/19 04:18:06;;;;;;;0.25;0.22;;;;;;;10.55;100.00;99839.69;7393662;19;20006;-55
2022/05/19 04:20:32;;;;;;;4.57;1.67;;;;;;;10.52;100.00;99829.53;7391863;19;20027;-55
2022/05/19 04:23:00;;;;;;;1.17;0.35;;;;;;;10.49;100.00;99830.47;7395668;19;20042;-55
2022/05/19 04:25:27;;;;;;;0.73;0.57;;;;;;;10.53;100.00;99819.13;7396746;19;20014;-55
2022/05/19 04:27:53;;;;;;;1.30;0.50;;;;;;;10.62;100.00;99816.28;7393844;19;20014;-55
2022/05/19 04:30:19;;;;;;;1.75;0.80;;;;;;;10.81;100.00;99828.03;7392657;19;20011;-55
2022/05/19 04:32:49;;;;;;;0.45;0.22;;;;;;;10.85;100.00;99825.84;7396236;19;20505;-55
2022/05/19 04:35:15;;;;;;;0.40;0.40;;;;;;;10.83;100.00;99828.34;7392629;19;20050;-55
2022/05/19 04:37:42;;;;;;;0.52;0.52;;;;;;;10.55;100.00;99834.13;7392747;19;20038;-55
2022/05/19 04:40:10;;;;;;;0.68;0.50;;;;;;;10.55;100.00;99836.13;7395713;19;20011;-55
2022/05/19 04:42:37;;;;;;;0.38;0.38;;;;;;;10.60;100.00;99833.47;7394663;19;20026;-55
2022/05/19 04:45:04;;;;;;;0.45;0.45;;;;;;;10.64;100.00;99825.69;7392820;19;20139;-55
2022/05/19 04:47:32;;;;;;;1.90;0.77;;;;;;;10.64;100.00;99816.56;7391504;19;20007;-55
2022/05/19 04:49:58;;;;;;;0.30;0.30;;;;;;;10.70;100.00;99820.22;7389879;19;20385;-55
2022/05/19 04:52:24;;;;;;;1.73;0.60;;;;;;;10.68;100.00;99827.53;7395591;19;20443;-55
2022/05/19 04:54:51;;;;;;;7.32;0.68;;;;;;;10.75;100.00;99829.94;7392758;19;20018;-55
2022/05/19 04:57:17;;;;;;;0.65;0.30;;;;;;;10.82;100.00;99819.19;7392444;19;20044;-55
2022/05/19 04:59:43;;;;;;;0.43;0.43;;;;;;;10.79;100.00;99824.94;7393024;19;20007;-55
2022/05/19 05:02:11;;;;;;;1.73;1.00;;;;;;;10.79;100.00;99811.00;7393756;19;20363;-55
2022/05/19 05:04:38;;;;;;;0.38;0.38;;;;;;;10.86;100.00;99819.00;7392514;19;20033;-55
2022/05/19 05:07:05;;;;;;;0.40;0.40;;;;;;;10.90;100.00;99822.38;7391289;19;20014;-54
2022/05/19 05:09:31;;;;;;;0.47;0.40;;;;;;;10.94;100.00;99825.72;7391436;19;20096;-54
2022/05/19 05:11:57;;;;;;;0.95;0.60;;;;;;;11.00;100.00;99840.56;7394531;19;20034;-54
2022/05/19 05:14:24;;;;;;;0.40;0.40;;;;;;;10.93;100.00;99824.22;7391062;19;20018;-54
2022/05/19 05:16:52;;;;;;;0.50;0.30;;;;;;;10.85;100.00;99823.06;7391917;19;20027;-54
2022/05/19 05:19:22;;;;;;;1.75;0.80;;;;;;;10.80;100.00;99826.50;7391081;19;20494;-54
2022/05/19 05:21:50;;;;;;;0.52;0.50;;;;;;;10.94;100.00;99820.94;7392333;19;20018;-55
2022/05/19 05:24:17;;;;;;;0.40;0.40;;;;;;;11.17;100.00;99828.47;7390379;19;20030;-54
2022/05/19 05:26:43;;;;;;;0.30;0.30;;;;;;;11.49;100.00;99829.50;7390081;19;20017;-54
2022/05/19 05:29:09;;;;;;;3.03;0.70;;;;;;;11.80;100.00;99834.59;7390662;19;20007;-54
2022/05/19 05:31:35;;;;;;;1.55;1.45;;;;;;;11.94;100.00;99850.50;7391855;19;20017;-54
2022/05/19 05:34:02;;;;;;;5.45;1.65;;;;;;;12.00;100.00;99859.72;7391120;19;20011;-54
2022/05/19 05:36:28;;;;;;;1.38;1.00;;;;;;;12.09;100.00;99849.22;7391006;19;20584;-54
2022/05/19 05:38:54;;;;;;;3.05;1.17;;;;;;;12.28;100.00;99846.19;7389552;19;20007;-54
2022/05/19 05:41:20;;;;;;;3.13;1.25;;;;;;;12.31;100.00;99839.63;7394066;19;20007;-54
2022/05/19 05:43:47;;;;;;;3.72;1.23;;;;;;;12.49;100.00;99850.53;7388566;19;20363;-54
2022/05/19 05:46:15;;;;;;;5.55;1.95;;;;;;;12.59;100.00;99857.50;7386163;19;20011;-54
2022/05/19 05:48:43;;;;;;;3.28;0.75;;;;;;;12.69;100.00;99850.53;7390589;19;20014;-54
2022/05/19 05:51:12;;;;;;;8.73;1.75;;;;;;;12.62;100.00;99848.16;7390225;19;20006;-54
2022/05/19 05:53:39;;;;;;;3.47;1.75;;;;;;;12.81;100.00;99854.97;7389680;19;20015;-54
2022/05/19 05:56:08;;;;;;;5.28;1.58;;;;;;;12.86;100.00;99857.06;7393410;19;20010;-54
2022/05/19 05:58:34;;;;;;;16.73;1.75;;;;;;;13.04;100.00;99850.41;7390653;19;20014;-54
2022/05/19 06:01:06;;;;;;;9.20;2.22;;;;;;;13.16;100.00;99841.66;7388591;19;20465;-54
2022/05/19 06:03:32;;;;;;;2.45;1.15;;;;;;;13.31;100.00;99852.72;7390357;19;20352;-54
2022/05/19 06:05:59;;;;;;;1.42;0.93;;;;;;;13.46;100.00;99859.75;7389053;19;20015;-54
2022/05/19 06:08:26;;;;;;;3.95;1.25;;;;;;;13.59;100.00;99856.53;7387889;19;20010;-54
2022/05/19 06:10:52;;;;;;;1.52;0.32;;;;;;;13.75;100.00;99863.53;7389727;19;20030;-54
2022/05/19 06:13:18;;;;;;;1.80;1.05;;;;;;;13.80;100.00;99882.41;7388120;19;20015;-54
2022/05/19 06:15:45;;;;;;;0.40;0.20;;;;;;;14.01;100.00;99890.19;7389951;19;20007;-54
2022/05/19 06:18:11;;;;;;;1.42;1.00;;;;;;;14.18;100.00;99890.34;7389875;19;20034;-54
2022/05/19 06:20:39;;;;;;;4.38;0.68;;;;;;;14.31;100.00;99883.03;7389553;19;20034;-54
2022/05/19 06:23:07;;;;;;;2.38;0.90;;;;;;;14.45;100.00;99881.34;7389553;19;20017;-54
2022/05/19 06:25:34;;;;;;;0.68;0.40;;;;;;;14.57;100.00;99888.56;7392421;19;20021;-54
2022/05/19 06:28:01;;;;;;;1.15;0.63;;;;;;;14.57;100.00;99888.56;7387593;19;20010;-54
2022/05/19 06:30:29;;;;;;;1.35;0.38;;;;;;;14.76;100.00;99889.66;7389037;19;20006;-54
2022/05/19 06:32:56;;;;;;;2.25;1.05;;;;;;;14.81;100.00;99908.53;7391900;19;20010;-54
2022/05/19 06:35:27;;;;;;;3.20;0.63;;;;;;;14.95;100.00;99901.97;7388897;19;20014;-54
2022/05/19 06:37:54;;;;;;;0.80;0.35;;;;;;;14.94;100.00;99905.28;7388554;19;20020;-54
2022/05/19 06:40:24;;;;;;;2.25;0.93;;;;;;;14.83;100.00;99900.41;7390759;19;20036;-54
2022/05/19 06:42:51;;;;;;;0.73;0.45;;;;;;;14.95;100.00;99890.75;7390450;19;20019;-54
2022/05/19 06:45:22;;;;;;;0.25;0.25;;;;;;;15.05;100.00;99905.31;7387946;19;20018;-54
2022/05/19 06:47:50;;;;;;;0.20;0.17;;;;;;;15.28;100.00;99908.94;7389139;19;20007;-54
2022/05/19 06:50:17;;;;;;;1.15;0.65;;;;;;;15.27;100.00;99913.03;7388387;19;20350;-54
2022/05/19 06:52:46;;;;;;;3.22;0.38;;;;;;;15.15;100.00;99915.81;7392219;19;20010;-54
2022/05/19 06:55:15;;;;;;;0.40;0.40;;;;;;;15.11;100.00;99920.13;7389795;19;20007;-54
2022/05/19 06:57:41;;;;;;;5.47;0.32;;;;;;;15.09;100.00;99925.47;7388357;19;20371;-54
2022/05/19 07:00:10;;;;;;;0.57;0.45;;;;;;;15.12;100.00;99919.59;7394281;19;20014;-54
2022/05/19 07:02:41;;;;;;;10.27;0.90;;;;;;;15.15;100.00;99921.41;7396256;19;20013;-54
2022/05/19 07:05:07;;;;;;;;;;;;;;;15.20;100.00;99923.44;7396994;19;20082;-54
2022/05/19 07:07:33;;;;;;;8.60;1.55;;;;;;;15.13;100.00;99918.34;7395090;19;20276;-54
2022/05/19 07:10:00;;;;;;;0.40;0.40;;;;;;;15.28;100.00;99914.56;7395436;19;20007;-54
2022/05/19 07:12:26;;;;;;;1.58;0.50;;;;;;;15.40;100.00;99902.09;7398939;19;20038;-54
2022/05/19 07:14:53;;;;;;;0.38;0.38;;;;;;;15.52;100.00;99875.59;7396702;19;20090;-54
2022/05/19 07:17:19;;;;;;;5.65;0.85;;;;;;;15.59;100.00;99869.47;7395673;19;20462;-54
2022/05/19 07:22:33;;;;;;;0.68;0.45;;;;;;;15.63;100.00;99833.50;7395050;19;20010;-54
2022/05/19 07:25:00;;;;;;;0.40;0.38;;;;;;;15.67;100.00;99853.66;7394222;19;20006;-54
2022/05/19 07:27:26;;;;;;;3.72;0.25;;;;;;;15.72;100.00;99890.13;7393886;19;20018;-53
2022/05/19 07:29:53;;;;;;;2.30;0.47;;;;;;;15.81;100.00;99900.34;7393525;19;20522;-54
2022/05/19 07:32:22;;;;;;;0.22;0.22;;;;;;;15.85;100.00;99914.94;7398167;19;20398;-54
2022/05/19 07:34:49;;;;;;;0.20;0.10;;;;;;;15.90;100.00;99939.44;7395536;19;20038;-54
2022/05/19 07:37:16;;;;;;;0.70;0.32;;;;;;;15.94;100.00;99945.56;7395239;19;20021;-53
2022/05/19 07:39:42;;;;;;;3.65;0.63;;;;;;;15.93;100.00;99938.41;7395532;19;20038;-53
2022/05/19 07:42:08;;;;;;;10.52;0.90;;;;;;;15.87;100.00;99924.34;7395138;19;20007;-53
2022/05/19 07:44:35;;;;;;;3.38;0.43;;;;;;;15.92;100.00;99920.78;7394337;19;20014;-53
2022/05/19 07:47:01;;;;;;;0.30;0.30;;;;;;;16.04;100.00;99915.16;7392670;19;20011;-53
2022/05/19 07:49:27;;;;;;;0.63;0.40;;;;;;;16.08;100.00;99926.91;7394707;19;20471;-53
2022/05/19 07:51:53;;;;;;;0.75;0.52;;;;;;;16.07;100.00;99914.16;7396808;19;20014;-53
2022/05/19 07:54:22;;;;;;;0.20;0.10;;;;;;;16.03;100.00;99894.72;7394591;19;20152;-53
2022/05/19 07:56:49;;;;;;;1.38;0.60;;;;;;;16.12;100.00;99891.66;7391502;19;20006;-53
2022/05/19 07:59:15;;;;;;;1.08;0.45;;;;;;;16.15;100.00;99898.31;7393421;19;20014;-53
2022/05/19 08:01:44;;;;;;;5.15;1.05;;;;;;;16.17;100.00;99902.13;7395372;19;20028;-53
2022/05/19 08:04:11;;;;;;;2.58;0.90;;;;;;;16.00;100.00;99915.44;7394274;19;20010;-53
2022/05/19 08:06:38;;;;;;;6.32;0.55;;;;;;;16.08;100.00;99915.69;7394256;19;20078;-53
2022/05/19 08:11:51;;;;;;;9.02;0.80;;;;;;;16.01;100.00;99941.47;7395209;19;20046;-53
2022/05/19 08:17:03;;;;;;;3.72;1.08;;;;;;;16.18;100.00;99954.22;7392426;19;20357;-53
2022/05/19 08:19:30;;;;;;;3.40;0.20;;;;;;;16.15;100.00;99946.84;7393528;19;20030;-53
2022/05/19 08:21:57;;;;;;;0.80;0.80;;;;;;;16.18;100.00;99959.09;7393129;19;20082;-53
2022/05/19 08:24:24;;;;;;;0.45;0.40;;;;;;;16.14;100.00;99964.19;7394982;19;20011;-53
2022/05/19 08:26:51;;;;;;;5.20;0.40;;;;;;;16.13;100.00;99957.06;7393807;19;20010;-53
2022/05/19 08:29:19;;;;;;;0.45;0.20;;;;;;;16.16;100.00;99951.16;7393878;19;20018;-52
2022/05/19 08:31:46;;;;;;;3.13;1.70;;;;;;;16.10;100.00;99947.59;7389812;19;20608;-53
2022/05/19 08:34:13;;;;;;;7.20;0.75;;;;;;;16.18;100.00;99954.22;7393681;19;20074;-53
2022/05/19 08:36:41;;;;;;;0.38;0.28;;;;;;;16.25;100.00;99970.59;7391886;19;20020;-52
2022/05/19 08:39:07;;;;;;;0.10;0.10;;;;;;;16.30;100.00;99983.88;7393716;19;20037;-53
2022/05/19 08:41:38;;;;;;;0.65;0.25;;;;;;;16.33;100.00;99985.66;7393386;19;20018;-53
2022/05/19 08:44:08;;;;;;;0.68;0.20;;;;;;;16.42;100.00;99988.19;7392897;19;20011;-53
2022/05/19 08:46:41;;;;;;;0.20;0.20;;;;;;;16.56;100.00;99990.03;7393652;19;20015;-53
2022/05/19 08:49:19;;;;;;;3.05;1.00;;;;;;;16.78;100.00;99999.69;7392908;19;20022;-52
2022/05/19 08:51:59;;;;;;;7.53;0.50;;;;;;;17.00;100.00;100005.25;7392947;19;20062;-53
2022/05/19 08:54:25;;;;;;;1.30;0.20;;;;;;;17.12;100.00;100009.56;7392834;19;20014;-53
2022/05/19 08:57:00;;;;;;;0.68;0.35;;;;;;;17.21;100.00;100006.47;7392482;19;20669;-53
2022/05/19 09:00:06;;;;;;;0.35;0.15;;;;;;;17.30;100.00;100026.63;7392986;19;20018;-53
2022/05/19 09:02:41;;;;;;;2.08;0.68;;;;;;;17.06;100.00;100028.53;7393813;19;20025;-53
2022/05/19 09:05:16;;;;;;;0.32;0.32;;;;;;;16.75;100.00;100049.28;7389475;19;20030;-53
2022/05/19 09:07:58;;;;;;;5.05;0.57;;;;;;;16.35;100.00;100058.25;7391170;19;20353;-53
2022/05/19 09:11:00;;;;;;;0.75;0.32;;;;;;;16.38;100.00;100074.84;7392474;19;20010;-53
2022/05/19 09:13:35;;;;;;;1.10;1.00;;;;;;;16.52;100.00;100082.28;7390097;19;20026;-53
2022/05/19 09:16:26;;;;;;;5.40;0.40;;;;;;;16.58;100.00;100083.06;7389071;19;20010;-53
2022/05/19 09:19:03;;;;;;;0.52;0.20;;;;;;;16.60;100.00;100090.97;7389748;19;20022;-53
2022/05/19 09:21:29;;;;;;;0.50;0.20;;;;;;;16.60;100.00;100103.00;7388710;19;20011;-53
2022/05/19 09:23:56;;;;;;;3.83;0.85;;;;;;;16.68;100.00;100108.88;7391882;19;20014;-53
2022/05/19 09:26:43;;;;;;;0.40;0.20;;;;;;;16.74;100.00;100122.94;7395488;19;20010;-53
2022/05/19 09:29:14;;;;;;;6.22;0.55;;;;;;;16.69;100.00;100121.66;7392081;19;20015;-53
2022/05/19 09:31:53;;;;;;;6.03;0.40;;;;;;;16.67;100.00;100121.41;7391762;19;20010;-53
2022/05/19 09:34:24;;;;;;;0.30;0.30;;;;;;;16.70;100.00;100128.81;7391688;19;20502;-53
2022/05/19 09:37:00;;;;;;;;;;;;;;;16.60;100.00;100125.50;7391624;19;20027;-53
2022/05/19 09:39:33;;;;;;;1.20;0.30;;;;;;;16.70;100.00;100128.81;7392274;19;20584;-53
2022/05/19 09:42:05;;;;;;;4.93;0.65;;;;;;;16.71;100.00;100129.56;7392413;19;20014;-53
2022/05/19 09:44:34;;;;;;;1.25;0.40;;;;;;;16.71;100.00;100130.34;7390296;19;20033;-53
2022/05/19 09:47:15;;;;;;;2.15;0.10;;;;;;;16.68;100.00;100126.50;7389721;19;20062;-53
2022/05/19 09:49:44;;;;;;;0.20;0.17;;;;;;;16.76;100.00;100128.81;7389172;19;20045;-53
2022/05/19 09:52:18;;;;;;;4.13;0.65;;;;;;;16.88;100.00;100127.53;7393427;19;20007;-53
2022/05/19 09:54:52;;;;;;;7.68;1.00;;;;;;;16.97;100.00;100125.22;7392094;19;20021;-53
2022/05/19 09:57:25;;;;;;;2.58;0.30;;;;;;;17.07;100.00;100115.22;7390015;19;20011;-53
2022/05/19 09:59:53;;;;;;;4.35;0.40;;;;;;;17.16;100.00;100120.59;7390088;19;20011;-53
2022/05/19 10:02:31;;;;;;;1.30;0.10;;;;;;;17.18;100.00;100122.88;7391567;19;20010;-53
2022/05/19 10:05:00;;;;;;;2.35;0.63;;;;;;;17.20;100.00;100115.47;7390070;19;20014;-53
2022/05/19 10:07:36;;;;;;;1.00;0.20;;;;;;;17.08;100.00;100113.19;7390806;19;20010;-53
2022/05/19 10:10:15;;;;;;;0.40;0.30;;;;;;;17.10;100.00;100121.88;7390617;19;20034;-53
2022/05/19 10:12:44;;;;;;;1.63;0.30;;;;;;;16.92;100.00;100120.38;7393751;19;20038;-53
2022/05/19 10:18:38;;;;;;;0.73;0.15;;;;;;;16.86;100.00;100113.22;7391999;19;20007;-60
2022/05/19 10:21:18;;;;;;;2.85;0.63;;;;;;;16.92;100.00;100109.09;7381128;19;20108;-60
2022/05/19 10:23:47;;;;;;;0.45;0.38;;;;;;;16.94;100.00;100102.97;7387530;19;20362;-60
2022/05/19 10:31:02;;;;;;;1.77;0.75;;;;;;;17.06;100.00;100119.34;7393803;19;20010;-61
2022/05/19 10:32:43;;;;;;;0.10;0.10;;;;;;;17.36;100.00;100122.34;7396242;19;20373;-61
2022/05/19 10:35:38;;;;;;;1.42;0.50;;;;;;;17.27;100.00;100114.16;7396969;19;20022;-61
2022/05/19 10:38:27;;;;;;;2.38;0.30;;;;;;;17.23;100.00;100117.25;7394405;19;20022;-61
2022/05/19 10:41:21;;;;;;;2.55;0.40;;;;;;;17.18;100.00;100122.88;7395671;19;20021;-60
2022/05/19 10:44:11;;;;;;;2.83;0.43;;;;;;;17.18;100.00;100120.84;7396790;19;20015;-61
2022/05/19 10:47:10;;;;;;;0.40;0.23;;;;;;;17.45;100.00;100119.25;7396509;19;20481;-60
2022/05/19 10:49:49;;;;;;;2.35;0.22;;;;;;;17.87;100.00;100120.88;7396096;19;20079;-60
2022/05/19 10:52:56;;;;;;;1.33;0.57;;;;;;;18.38;100.00;100122.91;7399406;19;20006;-60
2022/05/19 10:55:33;;;;;;;3.60;0.90;;;;;;;18.79;100.00;100120.06;7399906;19;20007;-60
2022/05/19 10:58:08;;;;;;;6.97;1.13;;;;;;;19.09;100.00;100132.09;7396188;19;20018;-60
2022/05/19 11:01:11;;;;;;;0.35;0.35;;;;;;;19.09;100.00;100122.88;7396256;19;20029;-60
2022/05/19 11:03:55;;;;;;;8.63;0.60;;;;;;;18.77;100.00;100129.06;7396424;19;20014;-60
2022/05/19 11:07:00;;;;;;;4.18;0.90;;;;;;;18.39;100.00;100137.75;7396131;19;20010;-61
2022/05/19 11:09:44;;;;;;;1.75;0.40;;;;;;;18.40;100.00;100139.31;7395875;19;20011;-61
2022/05/19 11:12:42;;;;;;;4.50;0.80;;;;;;;18.73;100.00;100127.81;7398356;19;20007;-61
2022/05/19 11:15:36;;;;;;;1.20;0.65;;;;;;;19.47;100.00;100135.84;7395355;19;20014;-60
2022/05/19 11:18:15;;;;;;;1.55;1.17;;;;;;;20.29;100.00;100130.47;7395341;19;20018;-61
2022/05/19 11:20:53;;;;;;;4.38;0.52;;;;;;;20.45;100.00;100123.78;7393410;19;20018;-61
2022/05/19 11:23:31;;;;;;;1.88;0.70;;;;;;;20.94;100.00;100127.13;7389597;19;20011;-61
2022/05/19 11:26:29;;;;;;;7.45;0.68;;;;;;;20.90;100.00;100096.28;7396274;19;20030;-60
2022/05/19 11:29:13;;;;;;;2.10;0.50;;;;;;;20.70;100.00;100070.66;7394378;19;20018;-59
2022/05/19 11:31:50;;;;;;;2.30;1.02;;;;;;;20.59;100.00;100071.63;7395868;19;20624;-59
2022/05/19 11:34:26;;;;;;;4.25;0.55;;;;;;;20.42;100.00;100062.66;7393927;19;20011;-59
2022/05/19 11:37:31;;;;;;;3.28;0.45;;;;;;;20.09;100.00;100063.13;7394754;19;20343;-60
2022/05/19 11:40:06;;;;;;;1.40;0.55;;;;;;;19.99;100.00;100071.22;7394053;19;20454;-60
2022/05/19 11:42:48;;;;;;;3.35;0.73;;;;;;;19.93;100.00;100075.41;7395734;19;20011;-59
2022/05/19 11:57:40;;;;;;;2.65;0.40;;;;;;;20.87;100.00;100074.75;7391018;19;20082;-62
2022/05/19 12:00:10;;;;;;;2.00;0.22;;;;;;;20.64;100.00;100072.84;7398149;19;20011;-62
2022/05/19 12:02:48;;;;;;;2.15;0.25;;;;;;;20.50;100.00;100069.19;7395443;19;20010;-61
2022/05/19 12:05:26;;;;;;;0.10;0.10;;;;;;;20.52;100.00;100065.81;7394416;19;20018;-61
2022/05/19 12:07:56;;;;;;;0.45;0.20;;;;;;;20.49;100.00;100078.97;7393976;19;20017;-61
2022/05/19 12:10:49;;;;;;;0.55;0.38;;;;;;;20.48;100.00;100068.19;7394159;19;20354;-62
2022/05/19 12:13:32;;;;;;;0.85;0.20;;;;;;;20.45;100.00;100070.03;7390892;19;20462;-61